sensor_id;sensor_type;location;lat;lon;timestamp;pressure;altitude;pressure_sealevel;temperature;humidity
13434;BME280;6789;47.678;9.158;2023-04-15T00:01:26;95804.09;;;4.11;100.00
13434;BME280;6789;47.678;9.158;2023-04-15T00:06:18;95803.13;;;4.05;100.00
13434;BME280;6789;47.678;9.158;2023-04-15T00:11:11;95802.97;;;3.94;100.00
13434;BME280;6789;47.678;9.158;2023-04-15T00:16:07;95789.03;;;3.88;100.00
13434;BME280;6789;47.678;9.158;2023-04-15T00:21:00;95809.03;;;3.81;100.00
13434;BME280;6789;47.678;9.158;2023-04-15T00:26:06;95792.47;;;3.76;100.00
13434;BME280;6789;47.678;9.158;2023-04-15T00:31:05;95799.28;;;3.70;100.00
13434;BME280;6789;47.678;9.158;2023-04-15T00:35:57;95792.72;;;3.68;100.00
13434;BME280;6789;47.678;9.158;2023-04-15T00:40:49;95797.69;;;3.63;100.00
13434;BME280;6789;47.678;9.158;2023-04-15T00:45:41;95805.50;;;3.56;100.00
13434;BME280;6789;47.678;9.158;2023-04-15T00:50:33;95808.31;;;3.55;100.00
13434;BME280;6789;47.678;9.158;2023-04-15T00:55:25;95803.13;;;3.55;100.00
13434;BME280;6789;47.678;9.158;2023-04-15T01:00:17;95804.50;;;3.51;100.00
13434;BME280;6789;47.678;9.158;2023-04-15T01:05:15;95802.72;;;3.45;100.00
13434;BME280;6789;47.678;9.158;2023-04-15T01:10:10;95809.34;;;3.41;100.00
13434;BME280;6789;47.678;9.158;2023-04-15T01:15:17;95812.53;;;3.43;100.00
13434;BME280;6789;47.678;9.158;2023-04-15T01:20:10;95814.53;;;3.35;100.00
13434;BME280;6789;47.678;9.158;2023-04-15T01:25:11;95807.94;;;3.32;100.00
13434;BME280;6789;47.678;9.158;2023-04-15T01:30:05;95804.19;;;3.28;100.00
13434;BME280;6789;47.678;9.158;2023-04-15T01:34:56;95807.56;;;3.35;100.00
13434;BME280;6789;47.678;9.158;2023-04-15T01:39:48;95807.19;;;3.25;100.00
13434;BME280;6789;47.678;9.158;2023-04-15T01:44:40;95807.38;;;3.17;100.00
13434;BME280;6789;47.678;9.158;2023-04-15T01:49:32;95803.41;;;3.08;100.00
13434;BME280;6789;47.678;9.158;2023-04-15T01:54:24;95814.75;;;3.07;100.00
13434;BME280;6789;47.678;9.158;2023-04-15T01:59:16;95807.59;;;3.03;100.00
13434;BME280;6789;47.678;9.158;2023-04-15T02:04:08;95806.22;;;3.00;100.00
13434;BME280;6789;47.678;9.158;2023-04-15T02:09:06;95817.53;;;2.93;100.00
13434;BME280;6789;47.678;9.158;2023-04-15T02:13:58;95821.53;;;2.95;100.00
13434;BME280;6789;47.678;9.158;2023-04-15T02:18:50;95822.31;;;2.89;100.00
13434;BME280;6789;47.678;9.158;2023-04-15T02:23:42;95819.34;;;2.86;100.00
13434;BME280;6789;47.678;9.158;2023-04-15T02:28:34;95827.50;;;2.83;100.00
13434;BME280;6789;47.678;9.158;2023-04-15T02:33:26;95829.13;;;2.84;100.00
13434;BME280;6789;47.678;9.158;2023-04-15T02:38:18;95821.94;;;2.92;100.00
13434;BME280;6789;47.678;9.158;2023-04-15T02:43:09;95819.13;;;2.81;100.00
13434;BME280;6789;47.678;9.158;2023-04-15T02:48:01;95813.56;;;2.78;100.00
13434;BME280;6789;47.678;9.158;2023-04-15T02:52:56;95809.19;;;2.72;100.00
13434;BME280;6789;47.678;9.158;2023-04-15T02:57:48;95816.38;;;2.70;100.00
13434;BME280;6789;47.678;9.158;2023-04-15T03:02:40;95814.75;;;2.62;100.00
13434;BME280;6789;47.678;9.158;2023-04-15T03:07:33;95821.13;;;2.60;100.00
13434;BME280;6789;47.678;9.158;2023-04-15T03:12:24;95820.72;;;2.56;100.00
13434;BME280;6789;47.678;9.158;2023-04-15T03:17:16;95827.69;;;2.56;100.00
13434;BME280;6789;47.678;9.158;2023-04-15T03:22:08;95825.50;;;2.46;100.00
13434;BME280;6789;47.678;9.158;2023-04-15T03:27:00;95826.44;;;2.39;100.00
13434;BME280;6789;47.678;9.158;2023-04-15T03:31:52;95822.09;;;2.39;100.00
13434;BME280;6789;47.678;9.158;2023-04-15T03:36:45;95822.50;;;2.43;100.00
13434;BME280;6789;47.678;9.158;2023-04-15T03:41:36;95816.34;;;2.44;100.00
13434;BME280;6789;47.678;9.158;2023-04-15T03:46:28;95809.16;;;2.39;100.00
13434;BME280;6789;47.678;9.158;2023-04-15T03:51:20;95807.75;;;2.37;100.00
13434;BME280;6789;47.678;9.158;2023-04-15T03:56:12;95810.31;;;2.24;100.00
13434;BME280;6789;47.678;9.158;2023-04-15T04:01:03;95811.50;;;2.21;100.00
13434;BME280;6789;47.678;9.158;2023-04-15T04:05:55;95811.50;;;2.21;100.00
13434;BME280;6789;47.678;9.158;2023-04-15T04:10:47;95806.53;;;2.20;100.00
13434;BME280;6789;47.678;9.158;2023-04-15T04:15:39;95809.34;;;2.25;100.00
13434;BME280;6789;47.678;9.158;2023-04-15T04:20:31;95816.47;;;2.16;100.00
13434;BME280;6789;47.678;9.158;2023-04-15T04:25:23;95825.38;;;2.08;100.00
13434;BME280;6789;47.678;9.158;2023-04-15T04:30:15;95826.56;;;2.05;100.00
13434;BME280;6789;47.678;9.158;2023-04-15T04:35:08;95826.41;;;2.19;100.00
13434;BME280;6789;47.678;9.158;2023-04-15T04:40:00;95825.63;;;2.19;100.00
13434;BME280;6789;47.678;9.158;2023-04-15T04:44:52;95820.25;;;2.27;100.00
13434;BME280;6789;47.678;9.158;2023-04-15T04:49:44;95815.13;;;2.33;100.00
13434;BME280;6789;47.678;9.158;2023-04-15T04:54:35;95815.34;;;2.51;100.00
13434;BME280;6789;47.678;9.158;2023-04-15T04:59:28;95815.38;;;2.77;100.00
13434;BME280;6789;47.678;9.158;2023-04-15T05:04:19;95812.72;;;3.48;100.00
13434;BME280;6789;47.678;9.158;2023-04-15T05:09:11;95829.19;;;4.23;100.00
13434;BME280;6789;47.678;9.158;2023-04-15T05:14:03;95830.97;;;5.15;100.00
13434;BME280;6789;47.678;9.158;2023-04-15T05:18:54;95839.47;;;6.06;100.00
13434;BME280;6789;47.678;9.158;2023-04-15T05:23:46;95840.72;;;6.92;93.00
13434;BME280;6789;47.678;9.158;2023-04-15T05:28:38;95854.88;;;7.82;86.23
13434;BME280;6789;47.678;9.158;2023-04-15T05:33:30;95852.09;;;8.34;82.38
13434;BME280;6789;47.678;9.158;2023-04-15T05:38:21;95859.28;;;7.93;82.49
13434;BME280;6789;47.678;9.158;2023-04-15T05:43:14;95865.09;;;7.61;84.88
13434;BME280;6789;47.678;9.158;2023-04-15T05:48:06;95860.06;;;7.25;87.23
13434;BME280;6789;47.678;9.158;2023-04-15T05:52:57;95858.91;;;7.21;88.01
13434;BME280;6789;47.678;9.158;2023-04-15T05:57:49;95859.72;;;7.21;87.82
13434;BME280;6789;47.678;9.158;2023-04-15T06:02:41;95857.47;;;7.36;88.93
13434;BME280;6789;47.678;9.158;2023-04-15T06:07:35;95852.84;;;7.73;86.92
13434;BME280;6789;47.678;9.158;2023-04-15T06:12:27;95862.56;;;8.11;85.52
13434;BME280;6789;47.678;9.158;2023-04-15T06:17:20;95858.69;;;8.25;84.59
13434;BME280;6789;47.678;9.158;2023-04-15T06:22:12;95864.03;;;8.19;85.00
13434;BME280;6789;47.678;9.158;2023-04-15T06:27:03;95854.53;;;8.52;83.74
13434;BME280;6789;47.678;9.158;2023-04-15T06:31:55;95858.56;;;8.59;83.84
13434;BME280;6789;47.678;9.158;2023-04-15T06:36:47;95854.66;;;8.46;83.81
13434;BME280;6789;47.678;9.158;2023-04-15T06:41:39;95853.56;;;8.69;84.09
13434;BME280;6789;47.678;9.158;2023-04-15T06:46:31;95860.31;;;8.82;82.28
13434;BME280;6789;47.678;9.158;2023-04-15T06:51:23;95858.44;;;8.94;82.39
13434;BME280;6789;47.678;9.158;2023-04-15T06:56:17;95867.38;;;8.81;81.96
13434;BME280;6789;47.678;9.158;2023-04-15T07:01:09;95866.28;;;8.94;82.13
13434;BME280;6789;47.678;9.158;2023-04-15T07:06:01;95860.69;;;9.18;80.78
13434;BME280;6789;47.678;9.158;2023-04-15T07:10:56;95861.22;;;9.04;80.15
13434;BME280;6789;47.678;9.158;2023-04-15T07:15:48;95858.44;;;9.10;80.26
13434;BME280;6789;47.678;9.158;2023-04-15T07:20:40;95861.09;;;9.26;79.93
13434;BME280;6789;47.678;9.158;2023-04-15T07:25:31;95851.53;;;10.02;77.12
13434;BME280;6789;47.678;9.158;2023-04-15T07:30:23;95848.75;;;10.52;72.49
13434;BME280;6789;47.678;9.158;2023-04-15T07:35:15;95852.34;;;10.93;70.32
13434;BME280;6789;47.678;9.158;2023-04-15T07:40:21;95850.34;;;11.00;68.02
13434;BME280;6789;47.678;9.158;2023-04-15T07:45:12;95852.00;;;10.59;68.97
13434;BME280;6789;47.678;9.158;2023-04-15T07:50:05;95852.34;;;11.20;67.28
13434;BME280;6789;47.678;9.158;2023-04-15T07:54:57;95855.19;;;11.44;66.21
13434;BME280;6789;47.678;9.158;2023-04-15T07:59:53;95847.47;;;11.59;65.61
13434;BME280;6789;47.678;9.158;2023-04-15T08:04:44;95854.16;;;11.50;66.00
13434;BME280;6789;47.678;9.158;2023-04-15T08:09:37;95853.38;;;11.45;65.67
13434;BME280;6789;47.678;9.158;2023-04-15T08:14:29;95857.06;;;11.18;65.60
13434;BME280;6789;47.678;9.158;2023-04-15T08:19:20;95860.69;;;11.12;66.02
13434;BME280;6789;47.678;9.158;2023-04-15T08:24:13;95852.47;;;11.03;65.92
13434;BME280;6789;47.678;9.158;2023-04-15T08:29:05;95853.16;;;11.20;65.92
13434;BME280;6789;47.678;9.158;2023-04-15T08:33:56;95853.16;;;11.20;65.02
13434;BME280;6789;47.678;9.158;2023-04-15T08:38:48;95853.00;;;11.63;64.27
13434;BME280;6789;47.678;9.158;2023-04-15T08:43:59;95853.75;;;11.95;63.12
13434;BME280;6789;47.678;9.158;2023-04-15T08:48:56;95851.03;;;11.85;62.85
13434;BME280;6789;47.678;9.158;2023-04-15T08:53:49;95858.78;;;12.06;61.33
13434;BME280;6789;47.678;9.158;2023-04-15T08:58:43;95854.78;;;12.45;61.41
13434;BME280;6789;47.678;9.158;2023-04-15T09:03:36;95849.25;;;12.36;59.77
13434;BME280;6789;47.678;9.158;2023-04-15T09:08:28;95839.38;;;12.73;59.71
13434;BME280;6789;47.678;9.158;2023-04-15T09:13:34;95848.97;;;12.38;60.00
13434;BME280;6789;47.678;9.158;2023-04-15T09:18:31;95845.09;;;12.50;59.43
13434;BME280;6789;47.678;9.158;2023-04-15T09:23:23;95863.53;;;12.65;58.85
13434;BME280;6789;47.678;9.158;2023-04-15T09:28:24;95858.84;;;12.72;58.00
13434;BME280;6789;47.678;9.158;2023-04-15T09:33:18;95855.69;;;12.75;57.98
13434;BME280;6789;47.678;9.158;2023-04-15T09:38:10;95859.53;;;13.14;57.91
13434;BME280;6789;47.678;9.158;2023-04-15T09:43:04;95864.31;;;13.56;57.57
13434;BME280;6789;47.678;9.158;2023-04-15T09:47:58;95852.94;;;13.81;56.00
13434;BME280;6789;47.678;9.158;2023-04-15T09:52:50;95860.34;;;13.59;57.36
13434;BME280;6789;47.678;9.158;2023-04-15T09:57:42;95857.72;;;13.54;56.21
13434;BME280;6789;47.678;9.158;2023-04-15T10:02:35;95857.97;;;13.57;56.09
13434;BME280;6789;47.678;9.158;2023-04-15T10:07:28;95860.59;;;13.82;55.72
13434;BME280;6789;47.678;9.158;2023-04-15T10:12:21;95855.03;;;14.09;54.23
13434;BME280;6789;47.678;9.158;2023-04-15T10:17:17;95865.34;;;13.36;56.86
13434;BME280;6789;47.678;9.158;2023-04-15T10:22:09;95865.00;;;12.97;57.67
13434;BME280;6789;47.678;9.158;2023-04-15T10:27:03;95865.06;;;13.32;56.38
13434;BME280;6789;47.678;9.158;2023-04-15T10:31:58;95864.03;;;13.58;56.59
13434;BME280;6789;47.678;9.158;2023-04-15T10:36:50;95864.56;;;13.85;56.22
13434;BME280;6789;47.678;9.158;2023-04-15T10:41:42;95867.44;;;13.83;55.61
13434;BME280;6789;47.678;9.158;2023-04-15T10:46:44;95858.75;;;13.53;55.39
13434;BME280;6789;47.678;9.158;2023-04-15T10:51:51;95859.53;;;13.73;56.46
13434;BME280;6789;47.678;9.158;2023-04-15T11:02:00;95866.94;;;13.61;55.98
13434;BME280;6789;47.678;9.158;2023-04-15T11:07:05;95872.44;;;13.80;54.71
13434;BME280;6789;47.678;9.158;2023-04-15T11:12:07;95874.84;;;13.61;56.85
13434;BME280;6789;47.678;9.158;2023-04-15T11:17:00;95876.38;;;14.02;55.81
13434;BME280;6789;47.678;9.158;2023-04-15T11:21:52;95877.38;;;14.51;54.05
13434;BME280;6789;47.678;9.158;2023-04-15T11:26:44;95880.75;;;14.61;53.95
13434;BME280;6789;47.678;9.158;2023-04-15T11:31:36;95885.03;;;14.37;54.92
13434;BME280;6789;47.678;9.158;2023-04-15T11:36:29;95877.91;;;14.33;55.29
13434;BME280;6789;47.678;9.158;2023-04-15T11:41:22;95881.00;;;14.65;52.96
13434;BME280;6789;47.678;9.158;2023-04-15T11:46:29;95891.94;;;14.09;53.73
13434;BME280;6789;47.678;9.158;2023-04-15T11:51:37;95900.91;;;14.03;54.46
13434;BME280;6789;47.678;9.158;2023-04-15T11:56:29;95894.03;;;14.27;52.33
13434;BME280;6789;47.678;9.158;2023-04-15T12:01:42;95903.97;;;14.54;51.88
13434;BME280;6789;47.678;9.158;2023-04-15T12:06:37;95913.38;;;14.90;51.45
13434;BME280;6789;47.678;9.158;2023-04-15T12:11:43;95915.19;;;14.95;49.71
13434;BME280;6789;47.678;9.158;2023-04-15T12:16:38;95927.13;;;14.82;50.44
13434;BME280;6789;47.678;9.158;2023-04-15T12:21:44;95924.53;;;14.62;49.63
13434;BME280;6789;47.678;9.158;2023-04-15T12:26:51;95928.22;;;14.71;50.13
13434;BME280;6789;47.678;9.158;2023-04-15T12:32:03;95936.66;;;14.68;51.12
13434;BME280;6789;47.678;9.158;2023-04-15T12:36:57;95937.22;;;14.65;48.61
13434;BME280;6789;47.678;9.158;2023-04-15T12:41:50;95945.41;;;14.54;49.64
13434;BME280;6789;47.678;9.158;2023-04-15T12:46:41;95956.25;;;14.52;48.08
13434;BME280;6789;47.678;9.158;2023-04-15T12:51:34;95961.50;;;14.62;45.94
13434;BME280;6789;47.678;9.158;2023-04-15T12:56:26;95964.63;;;14.74;44.04
13434;BME280;6789;47.678;9.158;2023-04-15T13:01:17;95972.53;;;14.79;43.47
13434;BME280;6789;47.678;9.158;2023-04-15T13:06:09;95976.72;;;14.85;43.71
13434;BME280;6789;47.678;9.158;2023-04-15T13:11:02;95975.44;;;14.88;43.45
13434;BME280;6789;47.678;9.158;2023-04-15T13:15:54;95988.91;;;14.81;44.74
13434;BME280;6789;47.678;9.158;2023-04-15T13:20:45;95994.44;;;14.85;45.50
13434;BME280;6789;47.678;9.158;2023-04-15T13:25:37;95983.34;;;14.83;48.10
13434;BME280;6789;47.678;9.158;2023-04-15T13:30:29;95996.78;;;14.96;48.56
13434;BME280;6789;47.678;9.158;2023-04-15T13:35:21;95993.00;;;15.17;47.19
13434;BME280;6789;47.678;9.158;2023-04-15T13:40:13;95992.66;;;15.38;44.96
13434;BME280;6789;47.678;9.158;2023-04-15T13:45:06;96001.00;;;15.65;45.77
13434;BME280;6789;47.678;9.158;2023-04-15T13:49:58;95998.22;;;15.85;45.80
13434;BME280;6789;47.678;9.158;2023-04-15T13:54:50;96002.25;;;15.77;40.61
13434;BME280;6789;47.678;9.158;2023-04-15T14:00:03;96009.88;;;15.84;43.50
13434;BME280;6789;47.678;9.158;2023-04-15T14:04:55;96003.41;;;16.05;44.28
13434;BME280;6789;47.678;9.158;2023-04-15T14:09:46;96018.66;;;16.13;44.05
13434;BME280;6789;47.678;9.158;2023-04-15T14:14:39;96018.59;;;15.84;43.02
13434;BME280;6789;47.678;9.158;2023-04-15T14:19:31;96023.88;;;15.36;43.33
13434;BME280;6789;47.678;9.158;2023-04-15T14:24:24;96028.84;;;15.43;46.94
13434;BME280;6789;47.678;9.158;2023-04-15T14:29:16;96037.13;;;15.16;46.79
13434;BME280;6789;47.678;9.158;2023-04-15T14:34:07;96044.81;;;14.98;46.76
13434;BME280;6789;47.678;9.158;2023-04-15T14:38:59;96056.75;;;14.86;48.36
13434;BME280;6789;47.678;9.158;2023-04-15T14:43:52;96055.44;;;14.78;48.06
13434;BME280;6789;47.678;9.158;2023-04-15T14:48:46;96066.53;;;14.65;50.17
13434;BME280;6789;47.678;9.158;2023-04-15T14:53:38;96072.34;;;14.62;50.47
13434;BME280;6789;47.678;9.158;2023-04-15T14:58:29;96082.38;;;14.45;51.51
13434;BME280;6789;47.678;9.158;2023-04-15T15:03:22;96093.44;;;14.32;51.83
13434;BME280;6789;47.678;9.158;2023-04-15T15:08:14;96088.69;;;14.29;52.29
13434;BME280;6789;47.678;9.158;2023-04-15T15:13:08;96093.94;;;14.20;53.31
13434;BME280;6789;47.678;9.158;2023-04-15T15:18:16;96112.25;;;13.75;56.59
13434;BME280;6789;47.678;9.158;2023-04-15T15:23:23;96124.22;;;13.36;56.51
13434;BME280;6789;47.678;9.158;2023-04-15T15:28:14;96127.84;;;13.25;55.92
13434;BME280;6789;47.678;9.158;2023-04-15T15:33:06;96135.56;;;13.00;57.85
13434;BME280;6789;47.678;9.158;2023-04-15T15:37:59;96138.97;;;12.96;61.34
13434;BME280;6789;47.678;9.158;2023-04-15T15:42:52;96137.13;;;12.91;63.09
13434;BME280;6789;47.678;9.158;2023-04-15T15:47:43;96136.31;;;12.91;63.83
13434;BME280;6789;47.678;9.158;2023-04-15T15:52:36;96146.53;;;12.87;64.29
13434;BME280;6789;47.678;9.158;2023-04-15T15:57:28;96160.06;;;12.70;64.94
13434;BME280;6789;47.678;9.158;2023-04-15T16:02:20;96161.16;;;12.74;65.62
13434;BME280;6789;47.678;9.158;2023-04-15T16:07:26;96172.00;;;12.82;65.15
13434;BME280;6789;47.678;9.158;2023-04-15T16:12:18;96174.31;;;12.47;66.12
13434;BME280;6789;47.678;9.158;2023-04-15T16:17:10;96177.41;;;12.39;66.68
13434;BME280;6789;47.678;9.158;2023-04-15T16:22:02;96186.03;;;12.09;68.75
13434;BME280;6789;47.678;9.158;2023-04-15T16:26:54;96188.72;;;11.92;69.41
13434;BME280;6789;47.678;9.158;2023-04-15T16:31:49;96196.47;;;11.82;69.52
13434;BME280;6789;47.678;9.158;2023-04-15T16:36:41;96209.25;;;11.95;69.69
13434;BME280;6789;47.678;9.158;2023-04-15T16:41:33;96222.38;;;11.74;70.95
13434;BME280;6789;47.678;9.158;2023-04-15T16:46:27;96240.38;;;11.49;72.19
13434;BME280;6789;47.678;9.158;2023-04-15T16:51:21;96266.38;;;11.13;74.37
13434;BME280;6789;47.678;9.158;2023-04-15T16:56:27;96284.94;;;11.11;74.91
13434;BME280;6789;47.678;9.158;2023-04-15T17:01:33;96302.47;;;11.06;74.82
13434;BME280;6789;47.678;9.158;2023-04-15T17:06:27;96306.13;;;11.05;75.61
13434;BME280;6789;47.678;9.158;2023-04-15T17:11:33;96303.41;;;11.16;76.90
13434;BME280;6789;47.678;9.158;2023-04-15T17:16:28;96310.09;;;11.24;75.51
13434;BME280;6789;47.678;9.158;2023-04-15T17:21:21;96319.91;;;11.28;77.48
13434;BME280;6789;47.678;9.158;2023-04-15T17:26:13;96332.59;;;11.20;75.70
13434;BME280;6789;47.678;9.158;2023-04-15T17:31:05;96351.59;;;11.10;77.01
13434;BME280;6789;47.678;9.158;2023-04-15T17:35:58;96358.44;;;11.11;77.63
13434;BME280;6789;47.678;9.158;2023-04-15T17:40:55;96358.59;;;11.05;78.02
13434;BME280;6789;47.678;9.158;2023-04-15T17:45:47;96365.22;;;10.96;77.31
13434;BME280;6789;47.678;9.158;2023-04-15T17:50:52;96375.72;;;10.96;77.63
13434;BME280;6789;47.678;9.158;2023-04-15T17:55:44;96387.56;;;10.82;79.53
13434;BME280;6789;47.678;9.158;2023-04-15T18:00:37;96404.44;;;10.74;80.68
13434;BME280;6789;47.678;9.158;2023-04-15T18:05:29;96410.25;;;10.76;80.70
13434;BME280;6789;47.678;9.158;2023-04-15T18:10:21;96421.03;;;10.91;79.67
13434;BME280;6789;47.678;9.158;2023-04-15T18:15:13;96425.16;;;10.48;82.51
13434;BME280;6789;47.678;9.158;2023-04-15T18:20:05;96430.88;;;10.22;83.09
13434;BME280;6789;47.678;9.158;2023-04-15T18:24:58;96440.44;;;10.28;83.00
13434;BME280;6789;47.678;9.158;2023-04-15T18:30:10;96442.03;;;10.29;84.14
13434;BME280;6789;47.678;9.158;2023-04-15T18:35:04;96459.25;;;10.14;86.63
13434;BME280;6789;47.678;9.158;2023-04-15T18:40:06;96461.13;;;9.95;89.42
13434;BME280;6789;47.678;9.158;2023-04-15T18:44:59;96469.44;;;9.93;92.52
13434;BME280;6789;47.678;9.158;2023-04-15T18:49:52;96469.22;;;9.83;95.15
13434;BME280;6789;47.678;9.158;2023-04-15T18:54:44;96481.25;;;9.72;96.35
13434;BME280;6789;47.678;9.158;2023-04-15T18:59:36;96497.88;;;9.78;95.99
13434;BME280;6789;47.678;9.158;2023-04-15T19:04:28;96507.09;;;9.69;96.14
13434;BME280;6789;47.678;9.158;2023-04-15T19:09:23;96523.69;;;9.63;99.06
13434;BME280;6789;47.678;9.158;2023-04-15T19:14:23;96533.50;;;9.67;99.19
13434;BME280;6789;47.678;9.158;2023-04-15T19:19:16;96532.69;;;9.67;97.53
13434;BME280;6789;47.678;9.158;2023-04-15T19:24:16;96540.09;;;9.70;96.87
13434;BME280;6789;47.678;9.158;2023-04-15T19:29:23;96554.63;;;9.95;93.04
13434;BME280;6789;47.678;9.158;2023-04-15T19:34:19;96565.03;;;9.72;94.90
13434;BME280;6789;47.678;9.158;2023-04-15T19:39:19;96567.84;;;9.71;97.56
13434;BME280;6789;47.678;9.158;2023-04-15T19:44:25;96571.69;;;9.57;100.00
13434;BME280;6789;47.678;9.158;2023-04-15T19:49:17;96561.34;;;9.15;100.00
13434;BME280;6789;47.678;9.158;2023-04-15T19:54:11;96565.63;;;9.09;100.00
13434;BME280;6789;47.678;9.158;2023-04-15T19:59:03;96560.84;;;9.06;100.00
13434;BME280;6789;47.678;9.158;2023-04-15T20:04:10;96583.81;;;9.04;100.00
13434;BME280;6789;47.678;9.158;2023-04-15T20:09:03;96575.09;;;9.10;100.00
13434;BME280;6789;47.678;9.158;2023-04-15T20:13:56;96581.91;;;9.11;100.00
13434;BME280;6789;47.678;9.158;2023-04-15T20:19:01;96577.47;;;9.12;100.00
13434;BME280;6789;47.678;9.158;2023-04-15T20:24:00;96575.81;;;9.17;100.00
13434;BME280;6789;47.678;9.158;2023-04-15T20:28:53;96575.09;;;9.10;100.00
13434;BME280;6789;47.678;9.158;2023-04-15T20:33:45;96574.34;;;8.85;100.00
13434;BME280;6789;47.678;9.158;2023-04-15T20:38:37;96566.63;;;8.72;100.00
13434;BME280;6789;47.678;9.158;2023-04-15T20:43:31;96568.09;;;8.68;100.00
13434;BME280;6789;47.678;9.158;2023-04-15T20:48:23;96554.28;;;8.61;100.00
13434;BME280;6789;47.678;9.158;2023-04-15T20:53:16;96560.66;;;8.65;100.00
13434;BME280;6789;47.678;9.158;2023-04-15T20:58:10;96551.06;;;8.59;100.00
13434;BME280;6789;47.678;9.158;2023-04-15T21:03:16;96563.94;;;8.61;100.00
13434;BME280;6789;47.678;9.158;2023-04-15T21:08:08;96577.22;;;8.59;100.00
13434;BME280;6789;47.678;9.158;2023-04-15T21:13:14;96582.50;;;8.77;100.00
13434;BME280;6789;47.678;9.158;2023-04-15T21:18:08;96590.75;;;8.74;100.00
13434;BME280;6789;47.678;9.158;2023-04-15T21:23:02;96605.66;;;8.74;100.00
13434;BME280;6789;47.678;9.158;2023-04-15T21:27:54;96592.59;;;8.74;100.00
13434;BME280;6789;47.678;9.158;2023-04-15T21:33:00;96597.59;;;8.75;100.00
13434;BME280;6789;47.678;9.158;2023-04-15T21:37:52;96599.88;;;8.65;100.00
13434;BME280;6789;47.678;9.158;2023-04-15T21:42:47;96609.84;;;8.75;100.00
13434;BME280;6789;47.678;9.158;2023-04-15T21:47:40;96607.00;;;8.58;100.00
13434;BME280;6789;47.678;9.158;2023-04-15T21:52:52;96609.41;;;8.60;100.00
13434;BME280;6789;47.678;9.158;2023-04-15T21:57:57;96615.75;;;8.70;100.00
13434;BME280;6789;47.678;9.158;2023-04-15T22:02:50;96616.84;;;8.56;100.00
13434;BME280;6789;47.678;9.158;2023-04-15T22:07:56;96613.66;;;8.54;100.00
13434;BME280;6789;47.678;9.158;2023-04-15T22:12:53;96608.28;;;8.50;100.00
13434;BME280;6789;47.678;9.158;2023-04-15T22:18:01;96612.75;;;8.43;100.00
13434;BME280;6789;47.678;9.158;2023-04-15T22:22:57;96606.38;;;8.39;100.00
13434;BME280;6789;47.678;9.158;2023-04-15T22:28:05;96613.28;;;8.51;100.00
13434;BME280;6789;47.678;9.158;2023-04-15T22:33:13;96610.72;;;8.45;100.00
13434;BME280;6789;47.678;9.158;2023-04-15T22:38:07;96621.19;;;8.45;100.00
13434;BME280;6789;47.678;9.158;2023-04-15T22:43:13;96635.47;;;8.42;100.00
13434;BME280;6789;47.678;9.158;2023-04-15T22:48:19;96633.66;;;8.43;100.00
13434;BME280;6789;47.678;9.158;2023-04-15T22:53:27;96633.50;;;8.38;100.00
13434;BME280;6789;47.678;9.158;2023-04-15T22:58:32;96643.78;;;8.33;100.00
13434;BME280;6789;47.678;9.158;2023-04-15T23:03:38;96644.16;;;8.36;100.00
13434;BME280;6789;47.678;9.158;2023-04-15T23:08:44;96657.25;;;8.30;100.00
13434;BME280;6789;47.678;9.158;2023-04-15T23:13:36;96660.50;;;8.25;100.00
13434;BME280;6789;47.678;9.158;2023-04-15T23:18:42;96670.09;;;8.31;100.00
13434;BME280;6789;47.678;9.158;2023-04-15T23:23:48;96669.53;;;8.29;100.00
13434;BME280;6789;47.678;9.158;2023-04-15T23:28:55;96673.19;;;8.22;100.00
13434;BME280;6789;47.678;9.158;2023-04-15T23:34:02;96676.81;;;8.21;100.00
13434;BME280;6789;47.678;9.158;2023-04-15T23:39:01;96680.84;;;8.17;100.00
13434;BME280;6789;47.678;9.158;2023-04-15T23:44:07;96670.22;;;8.12;100.00
13434;BME280;6789;47.678;9.158;2023-04-15T23:49:14;96677.28;;;8.05;100.00
13434;BME280;6789;47.678;9.158;2023-04-15T23:54:20;96672.44;;;8.08;100.00
13434;BME280;6789;47.678;9.158;2023-04-15T23:59:26;96680.06;;;8.16;100.00
